createdAt,value
2023-04-03T00:01:53.484Z,2.27
2023-04-03T00:04:20.844Z,2.28
2023-04-03T00:06:49.782Z,2.23
2023-04-03T00:09:17.302Z,2.02
2023-04-03T00:14:42.831Z,1.97
2023-04-03T00:17:10.249Z,2.05
2023-04-03T00:19:37.647Z,2.02
2023-04-03T00:22:06.323Z,1.74
2023-04-03T00:24:33.607Z,1.89
2023-04-03T00:27:00.883Z,1.69
2023-04-03T00:32:16.794Z,1.74
2023-04-03T00:34:44.132Z,1.65
2023-04-03T00:37:12.805Z,1.67
2023-04-03T00:39:40.256Z,1.78
2023-04-03T00:45:25.681Z,1.59
2023-04-03T00:47:53.165Z,1.61
2023-04-03T00:50:20.957Z,1.63
2023-04-03T00:55:57.051Z,1.32
2023-04-03T00:58:26.161Z,1.32
2023-04-03T01:03:52.048Z,1.30
2023-04-03T01:06:21.135Z,1.09
2023-04-03T01:08:49.944Z,1.16
2023-04-03T01:11:19.621Z,1.13
2023-04-03T01:16:38.297Z,0.72
2023-04-03T01:19:07.019Z,1.07
2023-04-03T01:21:59.867Z,1.19
2023-04-03T01:24:29.912Z,0.96
2023-04-03T01:26:58.856Z,0.63
2023-04-03T01:29:26.794Z,1.01
2023-04-03T01:31:56.282Z,1.01
2023-04-03T01:34:24.222Z,1.23
2023-04-03T01:39:42.085Z,1.02
2023-04-03T01:42:09.564Z,1.02
2023-04-03T01:44:40.824Z,0.92
2023-04-03T01:47:09.540Z,1.12
2023-04-03T01:52:36.768Z,1.20
2023-04-03T01:55:04.195Z,1.08
2023-04-03T01:57:31.690Z,0.94
2023-04-03T01:59:59.249Z,1.02
2023-04-03T02:02:28.073Z,0.91
2023-04-03T02:04:55.723Z,0.80
2023-04-03T02:07:23.334Z,0.45
2023-04-03T02:09:50.871Z,0.44
2023-04-03T02:12:18.226Z,0.12
2023-04-03T02:14:46.215Z,-0.26
2023-04-03T02:20:13.341Z,-0.38
2023-04-03T02:22:40.915Z,-0.59
2023-04-03T02:25:08.516Z,-0.27
2023-04-03T02:27:36.390Z,-0.63
2023-04-03T02:30:03.742Z,-0.49
2023-04-03T02:35:21.502Z,-0.27
2023-04-03T02:40:48.861Z,-0.49
2023-04-03T02:43:16.475Z,-0.99
2023-04-03T02:45:44.242Z,-1.01
2023-04-03T02:48:12.854Z,-1.05
2023-04-03T02:50:41.502Z,-0.83
2023-04-03T02:53:09.177Z,-0.75
2023-04-03T02:55:36.659Z,-0.67
2023-04-03T02:58:04.395Z,-0.84
2023-04-03T03:00:32.698Z,-0.89
2023-04-03T03:03:00.635Z,-1.00
2023-04-03T03:05:28.421Z,-0.92
2023-04-03T03:10:46.114Z,-1.02
2023-04-03T03:13:13.418Z,-1.28
2023-04-03T03:15:41.104Z,-1.29
2023-04-03T03:18:08.514Z,-0.94
2023-04-03T03:20:36.247Z,-0.81
2023-04-03T03:23:04.038Z,-0.68
2023-04-03T03:25:31.451Z,-0.63
2023-04-03T03:28:00.363Z,-0.54
2023-04-03T03:30:27.692Z,-0.54
2023-04-03T03:35:44.089Z,-0.59
2023-04-03T03:38:11.513Z,-0.62
2023-04-03T03:40:39.375Z,-0.58
2023-04-03T03:43:09.019Z,-0.67
2023-04-03T03:48:34.830Z,-0.91
2023-04-03T03:51:02.686Z,-1.01
2023-04-03T03:53:34.323Z,-1.01
2023-04-03T03:56:06.485Z,-0.83
2023-04-03T03:58:36.540Z,-0.64
2023-04-03T04:01:04.052Z,-0.53
2023-04-03T04:03:35.289Z,-0.54
2023-04-03T04:06:03.217Z,-0.45
2023-04-03T04:08:30.893Z,-0.44
2023-04-03T04:10:58.484Z,-0.46
2023-04-03T04:13:25.876Z,-0.52
2023-04-03T04:15:56.235Z,-0.71
2023-04-03T04:18:24.725Z,-0.65
2023-04-03T04:20:52.155Z,-0.63
2023-04-03T04:23:20.089Z,-0.70
2023-04-03T04:25:50.619Z,-1.02
2023-04-03T04:31:12.645Z,-0.79
2023-04-03T04:36:37.855Z,-0.94
2023-04-03T04:39:06.082Z,-0.94
2023-04-03T04:41:33.582Z,-0.93
2023-04-03T04:44:02.117Z,-0.99
2023-04-03T04:46:30.950Z,-1.08
2023-04-03T04:48:59.941Z,-1.07
2023-04-03T04:51:35.162Z,-1.16
2023-04-03T04:54:09.016Z,-1.26
2023-04-03T04:56:36.754Z,-1.26
2023-04-03T04:59:05.030Z,-1.31
2023-04-03T05:01:33.717Z,-1.49
2023-04-03T05:04:10.069Z,-1.56
2023-04-03T05:06:37.535Z,-1.40
2023-04-03T05:09:09.786Z,-1.30
2023-04-03T05:14:36.822Z,-1.38
2023-04-03T05:17:09.082Z,-1.23
2023-04-03T05:19:40.747Z,-1.14
2023-04-03T05:22:09.611Z,-1.40
2023-04-03T05:24:37.193Z,-1.11
2023-04-03T05:27:05.407Z,-1.09
2023-04-03T05:29:35.635Z,-1.28
2023-04-03T05:32:04.672Z,-1.22
2023-04-03T05:37:32.138Z,-0.73
2023-04-03T05:39:59.880Z,0.04
2023-04-03T05:42:28.157Z,0.93
2023-04-03T05:44:55.815Z,1.35
2023-04-03T05:47:23.391Z,1.46
2023-04-03T05:52:51.392Z,1.16
2023-04-03T05:55:19.016Z,1.58
2023-04-03T05:57:46.366Z,2.80
2023-04-03T06:03:12.980Z,5.56
2023-04-03T06:05:41.134Z,6.57
2023-04-03T06:08:10.083Z,6.29
2023-04-03T06:10:37.564Z,6.50
2023-04-03T06:16:04.874Z,5.06
2023-04-03T06:21:29.830Z,3.18
2023-04-03T06:23:58.587Z,2.67
2023-04-03T06:26:25.914Z,3.40
2023-04-03T06:31:41.787Z,3.90
2023-04-03T06:34:09.658Z,4.43
2023-04-03T06:36:37.239Z,5.13
2023-04-03T06:39:05.929Z,5.56
2023-04-03T06:41:34.255Z,6.66
2023-04-03T06:44:03.617Z,7.28
2023-04-03T06:46:31.191Z,6.72
2023-04-03T06:48:58.564Z,6.74
2023-04-03T06:51:26.954Z,6.44
2023-04-03T06:53:54.771Z,8.36
2023-04-03T06:56:23.801Z,8.41
2023-04-03T06:58:51.793Z,7.27
2023-04-03T07:01:20.022Z,8.07
2023-04-03T07:03:48.840Z,7.50
2023-04-03T07:08:52.956Z,7.49
2023-04-03T07:11:21.275Z,8.17
2023-04-03T07:16:40.696Z,6.82
2023-04-03T07:19:09.850Z,5.84
2023-04-03T07:21:37.368Z,7.06
2023-04-03T07:24:04.728Z,7.38
2023-04-03T07:26:32.422Z,7.30
2023-04-03T07:29:00.599Z,6.56
2023-04-03T07:34:28.153Z,7.30
2023-04-03T07:36:55.712Z,6.95
2023-04-03T07:39:23.107Z,6.68
2023-04-03T07:41:50.590Z,6.85
2023-04-03T07:47:18.128Z,6.10
2023-04-03T07:49:46.954Z,6.55
2023-04-03T07:52:15.609Z,6.72
2023-04-03T07:54:43.094Z,7.13
2023-04-03T07:57:10.888Z,7.04
2023-04-03T08:02:25.558Z,6.70
2023-04-03T08:04:54.333Z,6.72
2023-04-03T08:07:23.038Z,6.56
2023-04-03T08:09:50.744Z,5.97
2023-04-03T08:12:18.059Z,6.11
2023-04-03T08:14:45.361Z,6.05
2023-04-03T08:17:13.472Z,6.56
2023-04-03T08:20:07.314Z,6.09
2023-04-03T08:22:35.946Z,6.56
2023-04-03T08:27:51.973Z,6.02
2023-04-03T08:30:19.420Z,6.31
2023-04-03T08:32:46.873Z,5.83
2023-04-03T08:35:14.294Z,5.97
2023-04-03T08:37:43.168Z,5.84
2023-04-03T08:40:15.306Z,5.42
2023-04-03T08:42:44.323Z,5.98
2023-04-03T08:48:12.072Z,5.83
2023-04-03T08:50:40.095Z,5.56
2023-04-03T08:53:08.794Z,5.68
2023-04-03T08:55:36.734Z,5.73
2023-04-03T08:58:05.226Z,5.60
2023-04-03T09:00:34.227Z,5.74
2023-04-03T09:03:01.555Z,6.05
2023-04-03T09:05:32.113Z,6.22
2023-04-03T09:08:00.177Z,5.85
2023-04-03T09:10:32.177Z,6.51
2023-04-03T09:15:48.833Z,6.82
2023-04-03T09:18:17.549Z,7.10
2023-04-03T09:23:41.698Z,6.79
2023-04-03T09:26:12.041Z,6.98
2023-04-03T09:28:49.328Z,6.90
2023-04-03T09:31:22.481Z,7.10
2023-04-03T09:33:49.959Z,6.98
2023-04-03T09:39:12.556Z,6.40
2023-04-03T09:41:41.220Z,6.84
2023-04-03T09:44:19.875Z,7.37
2023-04-03T09:46:47.335Z,6.63
2023-04-03T09:49:14.962Z,6.56
2023-04-03T09:54:36.870Z,6.75
2023-04-03T10:00:05.740Z,6.84
2023-04-03T10:02:37.536Z,6.91
2023-04-03T10:05:09.869Z,7.18
2023-04-03T10:07:41.274Z,7.08
2023-04-03T10:10:19.072Z,7.34
2023-04-03T10:15:38.401Z,7.10
2023-04-03T10:18:17.953Z,7.28
2023-04-03T10:20:51.438Z,7.94
2023-04-03T10:23:21.241Z,7.75
2023-04-03T10:25:50.981Z,7.59
2023-04-03T10:28:19.534Z,8.21
2023-04-03T10:30:50.855Z,8.11
2023-04-03T10:33:22.886Z,8.40
2023-04-03T10:35:52.397Z,8.60
2023-04-03T10:38:21.313Z,8.62
2023-04-03T10:40:49.840Z,8.82
2023-04-03T10:43:18.750Z,9.44
2023-04-03T10:45:54.099Z,9.14
2023-04-03T10:51:13.507Z,8.37
2023-04-03T10:53:41.164Z,8.02
2023-04-03T10:56:10.025Z,7.21
2023-04-03T10:58:38.393Z,6.86
2023-04-03T11:01:09.969Z,6.11
2023-04-03T11:03:38.810Z,6.80
2023-04-03T11:09:07.710Z,7.74
2023-04-03T11:11:36.618Z,8.32
2023-04-03T11:14:04.491Z,8.76
2023-04-03T11:16:37.854Z,8.49
2023-04-03T11:19:13.213Z,8.91
2023-04-03T11:21:41.746Z,8.78
2023-04-03T11:24:12.377Z,9.85
2023-04-03T11:26:40.931Z,9.18
2023-04-03T11:29:09.149Z,9.49
2023-04-03T11:31:41.365Z,9.02
2023-04-03T11:36:57.056Z,9.08
2023-04-03T11:39:25.172Z,8.57
2023-04-03T11:42:00.232Z,8.52
2023-04-03T11:44:37.258Z,8.38
2023-04-03T11:47:06.636Z,8.37
2023-04-03T11:49:52.730Z,7.64
2023-04-03T11:52:35.313Z,7.58
2023-04-03T11:55:02.733Z,7.30
2023-04-03T11:58:03.225Z,7.23
2023-04-03T12:00:50.405Z,8.30
2023-04-03T12:03:51.089Z,9.16
2023-04-03T12:06:37.708Z,8.61
2023-04-03T12:09:07.912Z,8.45
2023-04-03T12:14:33.766Z,9.03
2023-04-03T12:17:01.612Z,8.80
2023-04-03T12:19:41.222Z,8.93
2023-04-03T12:22:17.070Z,8.98
2023-04-03T12:27:36.557Z,8.13
2023-04-03T12:30:10.693Z,8.46
2023-04-03T12:32:42.854Z,8.40
2023-04-03T12:35:16.810Z,8.42
2023-04-03T12:37:48.522Z,7.96
2023-04-03T12:40:17.959Z,8.11
2023-04-03T12:45:45.724Z,8.08
2023-04-03T12:48:17.452Z,7.93
2023-04-03T12:50:45.842Z,7.79
2023-04-03T12:53:14.330Z,7.82
2023-04-03T12:55:41.688Z,7.39
2023-04-03T12:58:16.051Z,7.98
2023-04-03T13:00:44.678Z,8.81
2023-04-03T13:03:21.437Z,9.35
2023-04-03T13:05:48.827Z,10.13
2023-04-03T13:08:16.825Z,10.31
2023-04-03T13:10:50.262Z,10.33
2023-04-03T13:13:17.621Z,10.40
2023-04-03T13:15:47.710Z,10.58
2023-04-03T13:18:32.052Z,10.62
2023-04-03T13:21:01.807Z,10.89
2023-04-03T13:26:18.147Z,10.29
2023-04-03T13:28:45.673Z,10.18
2023-04-03T13:31:20.515Z,10.00
2023-04-03T13:33:54.379Z,9.04
2023-04-03T13:39:23.365Z,8.90
2023-04-03T13:41:51.330Z,9.02
2023-04-03T13:44:19.591Z,8.95
2023-04-03T13:46:48.442Z,9.01
2023-04-03T13:49:19.667Z,8.93
2023-04-03T13:51:54.142Z,9.85
2023-04-03T13:54:32.326Z,10.22
2023-04-03T13:57:00.687Z,10.20
2023-04-03T13:59:29.138Z,9.60
2023-04-03T14:02:11.215Z,9.33
2023-04-03T14:04:47.130Z,8.86
2023-04-03T14:07:14.712Z,9.25
2023-04-03T14:12:37.091Z,10.15
2023-04-03T14:18:13.642Z,8.40
2023-04-03T14:20:41.341Z,9.43
2023-04-03T14:23:08.664Z,10.45
2023-04-03T14:28:19.924Z,10.56
2023-04-03T14:30:47.982Z,9.26
2023-04-03T14:33:17.874Z,8.99
2023-04-03T14:35:45.355Z,9.50
2023-04-03T14:38:23.643Z,10.35
2023-04-03T14:43:39.908Z,10.75
2023-04-03T14:46:07.575Z,10.16
2023-04-03T14:48:36.319Z,11.11
2023-04-03T14:51:06.042Z,11.36
2023-04-03T14:56:03.994Z,11.29
2023-04-03T14:58:33.005Z,11.58
2023-04-03T15:04:10.873Z,12.12
2023-04-03T15:06:38.281Z,12.02
2023-04-03T15:09:05.581Z,11.65
2023-04-03T15:11:32.871Z,10.31
2023-04-03T15:14:00.476Z,9.74
2023-04-03T15:16:27.874Z,9.13
2023-04-03T15:18:55.194Z,8.93
2023-04-03T15:21:23.844Z,10.34
2023-04-03T15:23:51.141Z,11.83
2023-04-03T15:26:18.437Z,12.43
2023-04-03T15:31:34.831Z,11.32
2023-04-03T15:34:02.192Z,10.15
2023-04-03T15:39:29.102Z,10.18
2023-04-03T15:41:57.648Z,10.53
2023-04-03T15:44:24.934Z,10.72
2023-04-03T15:46:52.570Z,10.31
2023-04-03T15:49:20.171Z,9.85
2023-04-03T15:54:39.570Z,11.24
2023-04-03T15:57:06.884Z,11.83
2023-04-03T15:59:34.360Z,12.19
2023-04-03T16:02:02.370Z,11.53
2023-04-03T16:04:29.783Z,11.32
2023-04-03T16:09:57.077Z,9.95
2023-04-03T16:12:24.401Z,10.19
2023-04-03T16:17:45.339Z,8.46
2023-04-03T16:20:13.103Z,7.98
2023-04-03T16:22:40.618Z,7.65
2023-04-03T16:28:11.059Z,8.33
2023-04-03T16:30:38.372Z,8.46
2023-04-03T16:33:06.053Z,9.17
2023-04-03T16:35:33.370Z,8.95
2023-04-03T16:38:00.674Z,8.21
2023-04-03T16:40:28.014Z,8.02
2023-04-03T16:45:57.332Z,8.16
2023-04-03T16:48:24.775Z,8.39
2023-04-03T16:50:54.119Z,8.33
2023-04-03T16:53:21.450Z,8.32
2023-04-03T16:55:48.747Z,8.31
2023-04-03T16:58:16.511Z,8.42
2023-04-03T17:00:44.032Z,8.79
2023-04-03T17:03:12.680Z,9.04
2023-04-03T17:05:40.493Z,9.02
2023-04-03T17:08:08.045Z,8.83
2023-04-03T17:10:36.303Z,9.16
2023-04-03T17:13:03.699Z,8.91
2023-04-03T17:15:30.996Z,9.08
2023-04-03T17:17:58.376Z,8.89
2023-04-03T17:20:50.019Z,8.37
2023-04-03T17:23:18.643Z,8.22
2023-04-03T17:25:46.114Z,8.10
2023-04-03T17:28:14.408Z,7.87
2023-04-03T17:30:41.808Z,7.30
2023-04-03T17:33:09.396Z,7.36
2023-04-03T17:38:27.105Z,7.17
2023-04-03T17:40:57.036Z,6.92
2023-04-03T17:43:24.398Z,6.70
2023-04-03T17:45:52.000Z,6.88
2023-04-03T17:48:19.619Z,6.89
2023-04-03T17:50:47.046Z,6.85
2023-04-03T17:53:15.034Z,6.75
2023-04-03T17:55:43.731Z,6.50
2023-04-03T17:58:11.249Z,6.37
2023-04-03T18:03:36.791Z,5.56
2023-04-03T18:06:04.402Z,5.34
2023-04-03T18:08:32.365Z,5.47
2023-04-03T18:11:01.210Z,5.43
2023-04-03T18:13:28.535Z,5.40
2023-04-03T18:19:06.922Z,4.84
2023-04-03T18:24:27.951Z,4.97
2023-04-03T18:26:57.128Z,4.84
2023-04-03T18:29:24.792Z,4.68
2023-04-03T18:31:53.014Z,4.65
2023-04-03T18:34:20.345Z,4.55
2023-04-03T18:36:49.244Z,4.18
2023-04-03T18:39:16.555Z,4.18
2023-04-03T18:41:43.919Z,4.01
2023-04-03T18:44:13.460Z,4.07
2023-04-03T18:46:40.913Z,4.12
2023-04-03T18:52:06.759Z,4.28
2023-04-03T18:54:34.356Z,4.05
2023-04-03T18:57:01.777Z,3.80
2023-04-03T18:59:30.624Z,3.94
2023-04-03T19:01:58.020Z,3.86
2023-04-03T19:04:25.387Z,3.73
2023-04-03T19:06:53.288Z,3.83
2023-04-03T19:09:20.652Z,3.86
2023-04-03T19:11:47.979Z,3.65
2023-04-03T19:14:16.973Z,3.57
2023-04-03T19:16:46.284Z,3.48
2023-04-03T19:19:13.752Z,3.58
2023-04-03T19:21:41.970Z,3.53
2023-04-03T19:24:09.562Z,3.40
2023-04-03T19:26:36.905Z,3.37
2023-04-03T19:29:04.482Z,3.37
2023-04-03T19:31:33.349Z,3.39
2023-04-03T19:34:02.477Z,3.16
2023-04-03T19:36:29.982Z,2.60
2023-04-03T19:38:57.401Z,2.44
2023-04-03T19:41:25.097Z,2.54
2023-04-03T19:43:53.008Z,2.54
2023-04-03T19:49:20.389Z,1.76
2023-04-03T19:51:47.764Z,1.94
2023-04-03T19:54:15.238Z,1.81
2023-04-03T19:56:42.554Z,1.76
2023-04-03T19:59:09.865Z,1.84
2023-04-03T20:01:37.603Z,1.56
2023-04-03T20:04:05.298Z,1.88
2023-04-03T20:06:34.051Z,1.73
2023-04-03T20:09:01.768Z,1.69
2023-04-03T20:11:29.078Z,1.77
2023-04-03T20:13:56.543Z,1.80
2023-04-03T20:16:25.511Z,1.82
2023-04-03T20:21:43.123Z,1.85
2023-04-03T20:24:12.111Z,1.84
2023-04-03T20:26:45.989Z,1.79
2023-04-03T20:29:14.515Z,1.86
2023-04-03T20:34:39.305Z,1.73
2023-04-03T20:40:06.912Z,1.64
2023-04-03T20:42:34.251Z,1.53
2023-04-03T20:45:01.568Z,1.27
2023-04-03T20:47:28.927Z,1.18
2023-04-03T20:49:56.564Z,0.71
2023-04-03T20:52:23.858Z,1.00
2023-04-03T20:54:52.614Z,1.03
2023-04-03T20:57:21.638Z,1.07
2023-04-03T20:59:48.968Z,1.06
2023-04-03T21:02:16.501Z,0.99
2023-04-03T21:04:46.430Z,0.94
2023-04-03T21:07:32.657Z,0.95
2023-04-03T21:10:18.484Z,0.89
2023-04-03T21:13:04.315Z,0.91
2023-04-03T21:15:59.610Z,0.86
2023-04-03T21:18:40.084Z,0.74
2023-04-03T21:21:07.409Z,0.72
2023-04-03T21:23:34.726Z,0.65
2023-04-03T21:26:03.251Z,0.42
2023-04-03T21:28:30.571Z,0.49
2023-04-03T21:30:57.952Z,0.59
2023-04-03T21:33:25.263Z,0.33
2023-04-03T21:35:57.873Z,0.39
2023-04-03T21:41:13.744Z,0.44
2023-04-03T21:43:41.339Z,0.39
2023-04-03T21:46:08.699Z,0.37
2023-04-03T21:48:36.685Z,0.27
2023-04-03T21:54:05.138Z,0.42
2023-04-03T21:56:32.459Z,0.43
2023-04-03T21:59:01.538Z,0.08
2023-04-03T22:01:29.803Z,0.21
2023-04-03T22:03:58.077Z,0.25
2023-04-03T22:06:25.559Z,0.24
2023-04-03T22:08:52.982Z,0.14
2023-04-03T22:11:22.819Z,0.15
2023-04-03T22:13:52.067Z,0.18
2023-04-03T22:19:17.764Z,0.20
2023-04-03T22:21:45.158Z,0.17
2023-04-03T22:24:12.640Z,0.16
2023-04-03T22:26:44.237Z,0.07
2023-04-03T22:32:09.739Z,-0.18
2023-04-03T22:34:38.022Z,-0.30
2023-04-03T22:37:05.408Z,-0.14
2023-04-03T22:39:32.765Z,-0.62
2023-04-03T22:42:01.902Z,-0.55
2023-04-03T22:44:34.979Z,-0.38
2023-04-03T22:49:59.238Z,-0.30
2023-04-03T22:52:26.524Z,-0.38
2023-04-03T22:54:53.833Z,-0.45
2023-04-03T23:00:12.743Z,-1.39
2023-04-03T23:02:40.093Z,-1.24
2023-04-03T23:05:08.142Z,-1.02
2023-04-03T23:07:35.618Z,-0.81
2023-04-03T23:10:02.925Z,-0.67
2023-04-03T23:12:30.365Z,-0.67
2023-04-03T23:17:50.156Z,-0.82
2023-04-03T23:20:17.697Z,-0.79
2023-04-03T23:22:45.472Z,-0.81
2023-04-03T23:25:12.776Z,-0.73
2023-04-03T23:27:40.327Z,-0.67
2023-04-03T23:30:08.388Z,-0.71
2023-04-03T23:32:35.855Z,-0.83
2023-04-03T23:38:03.061Z,-0.66
2023-04-03T23:40:30.375Z,-0.64
2023-04-03T23:42:57.692Z,-0.59
2023-04-03T23:45:25.075Z,-0.59
2023-04-03T23:50:50.730Z,-0.79
2023-04-03T23:53:19.375Z,-0.67
2023-04-03T23:55:47.024Z,-0.70
2023-04-03T23:58:14.400Z,-0.92
